sensor_id;sensor_type;location;lat;lon;timestamp;temperature;humidity
4052;DHT22;2040;50.924;11.604;2023-02-15T00:01:20;-0.20;99.90
4052;DHT22;2040;50.924;11.604;2023-02-15T00:03:48;-0.30;99.90
4052;DHT22;2040;50.924;11.604;2023-02-15T00:06:14;-0.30;99.90
4052;DHT22;2040;50.924;11.604;2023-02-15T00:08:40;-0.30;99.90
4052;DHT22;2040;50.924;11.604;2023-02-15T00:11:11;-0.20;99.90
4052;DHT22;2040;50.924;11.604;2023-02-15T00:13:37;-0.10;99.90
4052;DHT22;2040;50.924;11.604;2023-02-15T00:16:09;-0.10;99.90
4052;DHT22;2040;50.924;11.604;2023-02-15T00:18:35;0.10;99.90
4052;DHT22;2040;50.924;11.604;2023-02-15T00:21:06;0.20;99.90
4052;DHT22;2040;50.924;11.604;2023-02-15T00:23:32;0.10;99.90
4052;DHT22;2040;50.924;11.604;2023-02-15T00:26:09;0.00;99.90
4052;DHT22;2040;50.924;11.604;2023-02-15T00:28:35;0.00;99.90
4052;DHT22;2040;50.924;11.604;2023-02-15T00:31:11;0.00;99.90
4052;DHT22;2040;50.924;11.604;2023-02-15T00:33:38;0.00;99.90
4052;DHT22;2040;50.924;11.604;2023-02-15T00:36:05;0.20;99.90
4052;DHT22;2040;50.924;11.604;2023-02-15T00:38:31;0.10;99.90
4052;DHT22;2040;50.924;11.604;2023-02-15T00:40:59;-0.10;99.90
4052;DHT22;2040;50.924;11.604;2023-02-15T00:43:26;-0.10;99.90
4052;DHT22;2040;50.924;11.604;2023-02-15T00:45:52;-0.20;99.90
4052;DHT22;2040;50.924;11.604;2023-02-15T00:48:18;-0.20;99.90
4052;DHT22;2040;50.924;11.604;2023-02-15T00:50:52;-0.20;99.90
4052;DHT22;2040;50.924;11.604;2023-02-15T00:53:18;-0.20;99.90
4052;DHT22;2040;50.924;11.604;2023-02-15T00:55:44;-0.20;99.90
4052;DHT22;2040;50.924;11.604;2023-02-15T00:58:10;-0.10;99.90
4052;DHT22;2040;50.924;11.604;2023-02-15T01:00:36;-0.20;99.90
4052;DHT22;2040;50.924;11.604;2023-02-15T01:03:03;-0.20;99.90
4052;DHT22;2040;50.924;11.604;2023-02-15T01:05:29;-0.30;99.90
4052;DHT22;2040;50.924;11.604;2023-02-15T01:07:58;-0.30;99.90
4052;DHT22;2040;50.924;11.604;2023-02-15T01:10:24;-0.30;99.90
4052;DHT22;2040;50.924;11.604;2023-02-15T01:12:53;-0.20;99.90
4052;DHT22;2040;50.924;11.604;2023-02-15T01:15:19;-0.30;99.90
4052;DHT22;2040;50.924;11.604;2023-02-15T01:17:45;-0.30;99.90
4052;DHT22;2040;50.924;11.604;2023-02-15T01:20:17;-0.40;99.90
4052;DHT22;2040;50.924;11.604;2023-02-15T01:22:42;-0.50;99.90
4052;DHT22;2040;50.924;11.604;2023-02-15T01:25:08;-0.60;99.90
4052;DHT22;2040;50.924;11.604;2023-02-15T01:27:33;-0.60;99.90
4052;DHT22;2040;50.924;11.604;2023-02-15T01:29:59;-0.60;99.90
4052;DHT22;2040;50.924;11.604;2023-02-15T01:32:24;-0.60;99.90
4052;DHT22;2040;50.924;11.604;2023-02-15T01:34:52;-0.60;99.90
4052;DHT22;2040;50.924;11.604;2023-02-15T01:37:17;-0.60;99.90
4052;DHT22;2040;50.924;11.604;2023-02-15T01:39:43;-0.50;99.90
4052;DHT22;2040;50.924;11.604;2023-02-15T01:42:12;-0.50;99.90
4052;DHT22;2040;50.924;11.604;2023-02-15T01:45:39;-0.70;99.90
4052;DHT22;2040;50.924;11.604;2023-02-15T01:47:47;-0.80;99.90
4052;DHT22;2040;50.924;11.604;2023-02-15T01:52:55;-0.70;99.90
4052;DHT22;2040;50.924;11.604;2023-02-15T01:55:25;-0.80;99.90
4052;DHT22;2040;50.924;11.604;2023-02-15T01:57:52;-0.80;99.90
4052;DHT22;2040;50.924;11.604;2023-02-15T02:00:18;-0.70;99.90
4052;DHT22;2040;50.924;11.604;2023-02-15T02:02:46;-0.70;99.90
4052;DHT22;2040;50.924;11.604;2023-02-15T02:05:13;-0.80;99.90
4052;DHT22;2040;50.924;11.604;2023-02-15T02:07:42;-0.70;99.90
4052;DHT22;2040;50.924;11.604;2023-02-15T02:10:13;-0.70;99.90
4052;DHT22;2040;50.924;11.604;2023-02-15T02:12:42;-0.80;99.90
4052;DHT22;2040;50.924;11.604;2023-02-15T02:15:09;-0.80;99.90
4052;DHT22;2040;50.924;11.604;2023-02-15T02:17:58;-0.90;99.90
4052;DHT22;2040;50.924;11.604;2023-02-15T02:20:51;-0.90;99.90
4052;DHT22;2040;50.924;11.604;2023-02-15T02:34:32;-1.00;99.90
4052;DHT22;2040;50.924;11.604;2023-02-15T02:37:12;-1.00;99.90
4052;DHT22;2040;50.924;11.604;2023-02-15T02:40:02;-0.90;99.90
4052;DHT22;2040;50.924;11.604;2023-02-15T02:42:46;-1.10;99.90
4052;DHT22;2040;50.924;11.604;2023-02-15T02:45:26;-1.20;99.90
4052;DHT22;2040;50.924;11.604;2023-02-15T02:47:59;-1.20;99.90
4052;DHT22;2040;50.924;11.604;2023-02-15T02:50:29;-1.20;99.90
4052;DHT22;2040;50.924;11.604;2023-02-15T02:52:57;-1.20;99.90
4052;DHT22;2040;50.924;11.604;2023-02-15T03:01:02;-1.10;99.90
4052;DHT22;2040;50.924;11.604;2023-02-15T03:03:34;-1.00;99.90
4052;DHT22;2040;50.924;11.604;2023-02-15T03:06:12;-1.00;99.90
4052;DHT22;2040;50.924;11.604;2023-02-15T03:08:47;-1.10;99.90
4052;DHT22;2040;50.924;11.604;2023-02-15T03:11:14;-1.10;99.90
4052;DHT22;2040;50.924;11.604;2023-02-15T03:13:40;-1.20;99.90
4052;DHT22;2040;50.924;11.604;2023-02-15T03:16:06;-1.10;99.90
4052;DHT22;2040;50.924;11.604;2023-02-15T03:18:57;-0.90;99.90
4052;DHT22;2040;50.924;11.604;2023-02-15T03:21:39;-1.00;99.90
4052;DHT22;2040;50.924;11.604;2023-02-15T03:24:12;-1.10;99.90
4052;DHT22;2040;50.924;11.604;2023-02-15T03:26:39;-1.40;99.90
4052;DHT22;2040;50.924;11.604;2023-02-15T03:29:05;-1.40;99.90
4052;DHT22;2040;50.924;11.604;2023-02-15T03:31:35;-1.50;99.90
4052;DHT22;2040;50.924;11.604;2023-02-15T03:34:05;-1.30;99.90
4052;DHT22;2040;50.924;11.604;2023-02-15T03:39:19;-1.10;99.90
4052;DHT22;2040;50.924;11.604;2023-02-15T03:41:54;-1.10;99.90
4052;DHT22;2040;50.924;11.604;2023-02-15T03:44:28;-1.00;99.90
4052;DHT22;2040;50.924;11.604;2023-02-15T03:47:05;-1.00;99.90
4052;DHT22;2040;50.924;11.604;2023-02-15T03:49:36;-1.00;99.90
4052;DHT22;2040;50.924;11.604;2023-02-15T03:52:03;-1.10;99.90
4052;DHT22;2040;50.924;11.604;2023-02-15T03:54:32;-1.10;99.90
4052;DHT22;2040;50.924;11.604;2023-02-15T03:57:22;-1.00;99.90
4052;DHT22;2040;50.924;11.604;2023-02-15T04:00:21;-1.00;99.90
4052;DHT22;2040;50.924;11.604;2023-02-15T04:05:35;-1.00;99.90
4052;DHT22;2040;50.924;11.604;2023-02-15T04:08:01;-1.10;99.90
4052;DHT22;2040;50.924;11.604;2023-02-15T04:10:26;-1.10;99.90
4052;DHT22;2040;50.924;11.604;2023-02-15T04:13:11;-1.10;99.90
4052;DHT22;2040;50.924;11.604;2023-02-15T04:15:36;-1.10;99.90
4052;DHT22;2040;50.924;11.604;2023-02-15T04:18:21;-1.00;99.90
4052;DHT22;2040;50.924;11.604;2023-02-15T04:20:47;-1.10;99.90
4052;DHT22;2040;50.924;11.604;2023-02-15T04:23:32;-1.10;99.90
4052;DHT22;2040;50.924;11.604;2023-02-15T04:26:16;-1.10;99.90
4052;DHT22;2040;50.924;11.604;2023-02-15T04:28:42;-1.00;99.90
4052;DHT22;2040;50.924;11.604;2023-02-15T04:31:08;-1.00;99.90
4052;DHT22;2040;50.924;11.604;2023-02-15T04:33:33;-1.00;99.90
4052;DHT22;2040;50.924;11.604;2023-02-15T04:36:01;-1.00;99.90
4052;DHT22;2040;50.924;11.604;2023-02-15T04:38:27;-1.00;99.90
4052;DHT22;2040;50.924;11.604;2023-02-15T04:40:52;-1.10;99.90
4052;DHT22;2040;50.924;11.604;2023-02-15T04:43:19;-1.20;99.90
4052;DHT22;2040;50.924;11.604;2023-02-15T04:45:50;-1.20;99.90
4052;DHT22;2040;50.924;11.604;2023-02-15T04:48:17;-1.20;99.90
4052;DHT22;2040;50.924;11.604;2023-02-15T04:50:43;-1.30;99.90
4052;DHT22;2040;50.924;11.604;2023-02-15T04:53:09;-1.10;99.90
4052;DHT22;2040;50.924;11.604;2023-02-15T04:55:35;-1.20;99.90
4052;DHT22;2040;50.924;11.604;2023-02-15T04:58:01;-1.30;99.90
4052;DHT22;2040;50.924;11.604;2023-02-15T05:00:26;-1.40;99.90
4052;DHT22;2040;50.924;11.604;2023-02-15T05:02:52;-1.20;99.90
4052;DHT22;2040;50.924;11.604;2023-02-15T05:05:18;-1.30;99.90
4052;DHT22;2040;50.924;11.604;2023-02-15T05:07:44;-1.40;99.90
4052;DHT22;2040;50.924;11.604;2023-02-15T05:10:10;-1.50;99.90
4052;DHT22;2040;50.924;11.604;2023-02-15T05:12:35;-1.50;99.90
4052;DHT22;2040;50.924;11.604;2023-02-15T05:15:01;-1.50;99.90
4052;DHT22;2040;50.924;11.604;2023-02-15T05:17:26;-1.50;99.90
4052;DHT22;2040;50.924;11.604;2023-02-15T05:19:52;-1.60;99.90
4052;DHT22;2040;50.924;11.604;2023-02-15T05:22:17;-1.60;99.90
4052;DHT22;2040;50.924;11.604;2023-02-15T05:24:43;-1.60;99.90
4052;DHT22;2040;50.924;11.604;2023-02-15T05:27:27;-1.70;99.90
4052;DHT22;2040;50.924;11.604;2023-02-15T05:30:12;-1.70;99.90
4052;DHT22;2040;50.924;11.604;2023-02-15T05:32:38;-1.80;99.90
4052;DHT22;2040;50.924;11.604;2023-02-15T05:35:05;-1.70;99.90
4052;DHT22;2040;50.924;11.604;2023-02-15T05:37:30;-1.70;99.90
4052;DHT22;2040;50.924;11.604;2023-02-15T05:39:56;-1.70;99.90
4052;DHT22;2040;50.924;11.604;2023-02-15T05:42:22;-1.80;99.90
4052;DHT22;2040;50.924;11.604;2023-02-15T05:44:47;-1.70;99.90
4052;DHT22;2040;50.924;11.604;2023-02-15T05:47:13;-1.60;99.90
4052;DHT22;2040;50.924;11.604;2023-02-15T05:49:39;-1.60;99.90
4052;DHT22;2040;50.924;11.604;2023-02-15T05:52:05;-1.60;99.90
4052;DHT22;2040;50.924;11.604;2023-02-15T05:54:31;-1.70;99.90
4052;DHT22;2040;50.924;11.604;2023-02-15T05:56:56;-1.70;99.90
4052;DHT22;2040;50.924;11.604;2023-02-15T05:59:22;-1.70;99.90
4052;DHT22;2040;50.924;11.604;2023-02-15T06:01:48;-1.80;99.90
4052;DHT22;2040;50.924;11.604;2023-02-15T06:04:13;-1.90;99.90
4052;DHT22;2040;50.924;11.604;2023-02-15T06:06:39;-1.80;99.90
4052;DHT22;2040;50.924;11.604;2023-02-15T06:09:04;-1.80;99.90
4052;DHT22;2040;50.924;11.604;2023-02-15T06:11:30;-1.80;99.90
4052;DHT22;2040;50.924;11.604;2023-02-15T06:13:55;-1.80;99.90
4052;DHT22;2040;50.924;11.604;2023-02-15T06:16:22;-1.80;99.90
4052;DHT22;2040;50.924;11.604;2023-02-15T06:18:47;-1.80;99.90
4052;DHT22;2040;50.924;11.604;2023-02-15T06:21:13;-1.70;99.90
4052;DHT22;2040;50.924;11.604;2023-02-15T06:23:38;-1.60;99.90
4052;DHT22;2040;50.924;11.604;2023-02-15T06:26:04;-1.60;99.90
4052;DHT22;2040;50.924;11.604;2023-02-15T06:28:30;-1.60;99.90
4052;DHT22;2040;50.924;11.604;2023-02-15T06:30:55;-1.70;99.90
4052;DHT22;2040;50.924;11.604;2023-02-15T06:33:21;-1.60;99.90
4052;DHT22;2040;50.924;11.604;2023-02-15T06:35:47;-1.70;99.90
4052;DHT22;2040;50.924;11.604;2023-02-15T06:38:13;-1.60;99.90
4052;DHT22;2040;50.924;11.604;2023-02-15T06:40:39;-1.80;99.90
4052;DHT22;2040;50.924;11.604;2023-02-15T06:43:05;-1.70;99.90
4052;DHT22;2040;50.924;11.604;2023-02-15T06:45:30;-1.80;99.90
4052;DHT22;2040;50.924;11.604;2023-02-15T06:47:56;-1.80;99.90
4052;DHT22;2040;50.924;11.604;2023-02-15T06:50:21;-1.80;99.90
4052;DHT22;2040;50.924;11.604;2023-02-15T06:52:47;-1.80;99.90
4052;DHT22;2040;50.924;11.604;2023-02-15T06:55:12;-1.70;99.90
4052;DHT22;2040;50.924;11.604;2023-02-15T06:57:38;-1.70;99.90
4052;DHT22;2040;50.924;11.604;2023-02-15T07:00:04;-1.60;99.90
4052;DHT22;2040;50.924;11.604;2023-02-15T07:02:30;-1.70;99.90
4052;DHT22;2040;50.924;11.604;2023-02-15T07:04:56;-1.70;99.90
4052;DHT22;2040;50.924;11.604;2023-02-15T07:07:22;-1.70;99.90
4052;DHT22;2040;50.924;11.604;2023-02-15T07:09:48;-1.70;99.90
4052;DHT22;2040;50.924;11.604;2023-02-15T07:12:13;-1.70;99.90
4052;DHT22;2040;50.924;11.604;2023-02-15T07:15:16;-1.50;99.90
4052;DHT22;2040;50.924;11.604;2023-02-15T07:17:43;-1.70;99.90
4052;DHT22;2040;50.924;11.604;2023-02-15T07:20:17;-1.70;99.90
4052;DHT22;2040;50.924;11.604;2023-02-15T07:22:43;-1.60;99.90
4052;DHT22;2040;50.924;11.604;2023-02-15T07:25:10;-1.60;99.90
4052;DHT22;2040;50.924;11.604;2023-02-15T07:27:36;-1.60;99.90
4052;DHT22;2040;50.924;11.604;2023-02-15T07:30:03;-1.50;99.90
4052;DHT22;2040;50.924;11.604;2023-02-15T07:32:30;-1.40;99.90
4052;DHT22;2040;50.924;11.604;2023-02-15T07:34:56;-1.50;99.90
4052;DHT22;2040;50.924;11.604;2023-02-15T07:37:22;-1.50;99.90
4052;DHT22;2040;50.924;11.604;2023-02-15T07:39:47;-1.50;99.90
4052;DHT22;2040;50.924;11.604;2023-02-15T07:42:13;-1.40;99.90
4052;DHT22;2040;50.924;11.604;2023-02-15T07:44:39;-1.50;99.90
4052;DHT22;2040;50.924;11.604;2023-02-15T07:47:04;-1.40;99.90
4052;DHT22;2040;50.924;11.604;2023-02-15T07:49:30;-1.40;99.90
4052;DHT22;2040;50.924;11.604;2023-02-15T07:51:55;-1.40;99.90
4052;DHT22;2040;50.924;11.604;2023-02-15T07:54:21;-1.70;99.90
4052;DHT22;2040;50.924;11.604;2023-02-15T07:56:46;-1.50;99.90
4052;DHT22;2040;50.924;11.604;2023-02-15T07:59:12;-1.30;99.90
4052;DHT22;2040;50.924;11.604;2023-02-15T08:01:39;-1.10;99.90
4052;DHT22;2040;50.924;11.604;2023-02-15T08:04:06;-1.10;99.90
4052;DHT22;2040;50.924;11.604;2023-02-15T08:06:34;-1.00;99.90
4052;DHT22;2040;50.924;11.604;2023-02-15T08:09:00;-1.00;99.90
4052;DHT22;2040;50.924;11.604;2023-02-15T08:11:30;-1.10;99.90
4052;DHT22;2040;50.924;11.604;2023-02-15T08:16:31;-1.10;99.90
4052;DHT22;2040;50.924;11.604;2023-02-15T08:18:59;-1.00;99.90
4052;DHT22;2040;50.924;11.604;2023-02-15T08:21:27;-0.90;99.90
4052;DHT22;2040;50.924;11.604;2023-02-15T08:23:53;-0.80;99.90
4052;DHT22;2040;50.924;11.604;2023-02-15T08:26:20;-0.90;99.90
4052;DHT22;2040;50.924;11.604;2023-02-15T08:28:45;-0.80;99.90
4052;DHT22;2040;50.924;11.604;2023-02-15T08:31:12;-1.00;99.90
4052;DHT22;2040;50.924;11.604;2023-02-15T08:33:40;-0.90;99.90
4052;DHT22;2040;50.924;11.604;2023-02-15T08:36:08;-0.80;99.90
4052;DHT22;2040;50.924;11.604;2023-02-15T08:38:35;-0.60;99.90
4052;DHT22;2040;50.924;11.604;2023-02-15T08:41:18;-0.50;99.90
4052;DHT22;2040;50.924;11.604;2023-02-15T08:43:46;-0.50;99.90
4052;DHT22;2040;50.924;11.604;2023-02-15T08:46:13;-0.40;99.90
4052;DHT22;2040;50.924;11.604;2023-02-15T08:48:39;-0.30;99.90
4052;DHT22;2040;50.924;11.604;2023-02-15T08:53:44;-0.30;99.90
4052;DHT22;2040;50.924;11.604;2023-02-15T08:56:11;0.00;99.90
4052;DHT22;2040;50.924;11.604;2023-02-15T08:58:37;-0.10;99.90
4052;DHT22;2040;50.924;11.604;2023-02-15T09:01:14;-0.10;99.90
4052;DHT22;2040;50.924;11.604;2023-02-15T09:03:47;-0.20;99.90
4052;DHT22;2040;50.924;11.604;2023-02-15T09:06:13;-0.20;99.90
4052;DHT22;2040;50.924;11.604;2023-02-15T09:08:39;-0.20;99.90
4052;DHT22;2040;50.924;11.604;2023-02-15T09:11:13;-0.20;99.90
4052;DHT22;2040;50.924;11.604;2023-02-15T09:13:42;-0.20;99.90
4052;DHT22;2040;50.924;11.604;2023-02-15T09:16:09;0.00;99.90
4052;DHT22;2040;50.924;11.604;2023-02-15T09:18:37;0.10;99.90
4052;DHT22;2040;50.924;11.604;2023-02-15T09:21:11;0.10;99.90
4052;DHT22;2040;50.924;11.604;2023-02-15T09:23:41;0.40;99.90
4052;DHT22;2040;50.924;11.604;2023-02-15T09:26:12;0.50;99.90
4052;DHT22;2040;50.924;11.604;2023-02-15T09:28:39;0.40;99.90
4052;DHT22;2040;50.924;11.604;2023-02-15T09:33:34;0.60;99.90
4052;DHT22;2040;50.924;11.604;2023-02-15T09:36:00;0.60;99.90
4052;DHT22;2040;50.924;11.604;2023-02-15T09:38:26;0.80;99.90
4052;DHT22;2040;50.924;11.604;2023-02-15T09:43:42;1.00;99.90
4052;DHT22;2040;50.924;11.604;2023-02-15T09:46:34;0.90;99.90
4052;DHT22;2040;50.924;11.604;2023-02-15T10:12:48;3.00;99.90
4052;DHT22;2040;50.924;11.604;2023-02-15T10:26:17;3.30;99.90
4052;DHT22;2040;50.924;11.604;2023-02-15T10:28:56;3.60;99.90
4052;DHT22;2040;50.924;11.604;2023-02-15T10:31:35;3.80;99.90
4052;DHT22;2040;50.924;11.604;2023-02-15T10:34:09;4.00;99.90
4052;DHT22;2040;50.924;11.604;2023-02-15T10:36:57;4.20;99.90
4052;DHT22;2040;50.924;11.604;2023-02-15T10:42:16;4.70;99.90
4052;DHT22;2040;50.924;11.604;2023-02-15T10:47:56;4.50;99.90
4052;DHT22;2040;50.924;11.604;2023-02-15T10:50:46;4.60;99.90
4052;DHT22;2040;50.924;11.604;2023-02-15T10:53:28;4.80;99.90
4052;DHT22;2040;50.924;11.604;2023-02-15T11:04:49;5.60;99.90
4052;DHT22;2040;50.924;11.604;2023-02-15T11:07:34;5.60;99.90
4052;DHT22;2040;50.924;11.604;2023-02-15T11:10:33;5.90;99.90
4052;DHT22;2040;50.924;11.604;2023-02-15T11:13:12;6.20;99.90
4052;DHT22;2040;50.924;11.604;2023-02-15T11:15:41;6.50;99.90
4052;DHT22;2040;50.924;11.604;2023-02-15T11:18:15;6.80;99.90
4052;DHT22;2040;50.924;11.604;2023-02-15T11:21:09;7.10;99.90
4052;DHT22;2040;50.924;11.604;2023-02-15T11:23:41;7.30;99.90
4052;DHT22;2040;50.924;11.604;2023-02-15T11:26:28;7.30;99.90
4052;DHT22;2040;50.924;11.604;2023-02-15T11:29:21;7.50;99.90
4052;DHT22;2040;50.924;11.604;2023-02-15T11:31:58;7.80;99.90
4052;DHT22;2040;50.924;11.604;2023-02-15T11:34:34;8.10;99.90
4052;DHT22;2040;50.924;11.604;2023-02-15T11:37:07;8.20;99.90
4052;DHT22;2040;50.924;11.604;2023-02-15T11:39:34;8.30;99.90
4052;DHT22;2040;50.924;11.604;2023-02-15T11:42:14;8.20;99.90
4052;DHT22;2040;50.924;11.604;2023-02-15T11:47:53;8.30;99.90
4052;DHT22;2040;50.924;11.604;2023-02-15T11:50:24;8.70;99.90
4052;DHT22;2040;50.924;11.604;2023-02-15T11:52:51;8.90;99.90
4052;DHT22;2040;50.924;11.604;2023-02-15T11:55:21;8.90;99.90
4052;DHT22;2040;50.924;11.604;2023-02-15T11:57:54;9.00;99.90
4052;DHT22;2040;50.924;11.604;2023-02-15T12:02:53;9.00;99.90
4052;DHT22;2040;50.924;11.604;2023-02-15T12:05:24;9.20;99.90
4052;DHT22;2040;50.924;11.604;2023-02-15T12:07:57;9.30;99.90
4052;DHT22;2040;50.924;11.604;2023-02-15T12:10:29;9.30;99.90
4052;DHT22;2040;50.924;11.604;2023-02-15T12:13:15;9.40;99.90
4052;DHT22;2040;50.924;11.604;2023-02-15T12:15:46;9.60;99.90
4052;DHT22;2040;50.924;11.604;2023-02-15T12:20:59;9.80;99.90
4052;DHT22;2040;50.924;11.604;2023-02-15T12:23:28;10.00;99.90
4052;DHT22;2040;50.924;11.604;2023-02-15T12:25:56;10.10;99.90
4052;DHT22;2040;50.924;11.604;2023-02-15T12:28:35;10.20;99.90
4052;DHT22;2040;50.924;11.604;2023-02-15T12:31:03;10.40;99.90
4052;DHT22;2040;50.924;11.604;2023-02-15T12:33:39;10.50;99.90
4052;DHT22;2040;50.924;11.604;2023-02-15T12:36:12;10.80;99.90
4052;DHT22;2040;50.924;11.604;2023-02-15T12:38:40;11.20;99.90
4052;DHT22;2040;50.924;11.604;2023-02-15T12:41:24;11.00;99.90
4052;DHT22;2040;50.924;11.604;2023-02-15T12:44:17;11.00;99.90
4052;DHT22;2040;50.924;11.604;2023-02-15T12:46:59;11.30;99.90
4052;DHT22;2040;50.924;11.604;2023-02-15T12:49:26;11.30;99.90
4052;DHT22;2040;50.924;11.604;2023-02-15T12:51:58;11.40;99.90
4052;DHT22;2040;50.924;11.604;2023-02-15T12:57:30;11.90;99.90
4052;DHT22;2040;50.924;11.604;2023-02-15T12:59:59;12.10;99.90
4052;DHT22;2040;50.924;11.604;2023-02-15T13:05:22;12.20;99.90
4052;DHT22;2040;50.924;11.604;2023-02-15T13:08:03;12.20;99.90
4052;DHT22;2040;50.924;11.604;2023-02-15T13:13:10;12.40;99.90
4052;DHT22;2040;50.924;11.604;2023-02-15T13:15:39;12.60;99.90
4052;DHT22;2040;50.924;11.604;2023-02-15T13:18:12;12.70;99.90
4052;DHT22;2040;50.924;11.604;2023-02-15T13:20:38;12.80;99.90
4052;DHT22;2040;50.924;11.604;2023-02-15T13:23:20;13.00;99.90
4052;DHT22;2040;50.924;11.604;2023-02-15T13:25:48;13.30;99.90
4052;DHT22;2040;50.924;11.604;2023-02-15T13:28:17;13.50;99.90
4052;DHT22;2040;50.924;11.604;2023-02-15T13:30:46;13.60;99.90
4052;DHT22;2040;50.924;11.604;2023-02-15T13:33:33;13.70;99.90
4052;DHT22;2040;50.924;11.604;2023-02-15T13:36:08;13.80;99.90
4052;DHT22;2040;50.924;11.604;2023-02-15T13:41:33;13.80;99.90
4052;DHT22;2040;50.924;11.604;2023-02-15T13:44:09;13.80;99.90
4052;DHT22;2040;50.924;11.604;2023-02-15T13:49:35;14.00;99.90
4052;DHT22;2040;50.924;11.604;2023-02-15T13:52:24;14.10;99.90
4052;DHT22;2040;50.924;11.604;2023-02-15T14:03:05;14.40;99.90
4052;DHT22;2040;50.924;11.604;2023-02-15T14:16:29;14.20;99.90
4052;DHT22;2040;50.924;11.604;2023-02-15T14:22:02;14.10;99.90
4052;DHT22;2040;50.924;11.604;2023-02-15T14:24:43;14.10;99.90
4052;DHT22;2040;50.924;11.604;2023-02-15T14:27:41;14.20;99.90
4052;DHT22;2040;50.924;11.604;2023-02-15T14:30:29;14.20;99.90
4052;DHT22;2040;50.924;11.604;2023-02-15T14:33:05;14.20;99.90
4052;DHT22;2040;50.924;11.604;2023-02-15T14:35:32;14.20;99.90
4052;DHT22;2040;50.924;11.604;2023-02-15T14:38:16;14.30;99.90
4052;DHT22;2040;50.924;11.604;2023-02-15T14:46:46;14.10;99.90
4052;DHT22;2040;50.924;11.604;2023-02-15T14:49:27;13.90;99.90
4052;DHT22;2040;50.924;11.604;2023-02-15T14:51:58;13.70;99.90
4052;DHT22;2040;50.924;11.604;2023-02-15T14:57:22;13.60;99.90
4052;DHT22;2040;50.924;11.604;2023-02-15T14:59:59;13.60;99.90
4052;DHT22;2040;50.924;11.604;2023-02-15T15:05:21;13.40;99.90
4052;DHT22;2040;50.924;11.604;2023-02-15T15:07:53;13.40;99.90
4052;DHT22;2040;50.924;11.604;2023-02-15T15:12:49;13.30;99.90
4052;DHT22;2040;50.924;11.604;2023-02-15T15:18:09;13.30;99.90
4052;DHT22;2040;50.924;11.604;2023-02-15T15:36:56;13.50;99.90
4052;DHT22;2040;50.924;11.604;2023-02-15T15:42:31;13.30;99.90
4052;DHT22;2040;50.924;11.604;2023-02-15T15:45:15;13.10;99.90
4052;DHT22;2040;50.924;11.604;2023-02-15T15:48:05;13.00;99.90
4052;DHT22;2040;50.924;11.604;2023-02-15T15:50:32;12.70;99.90
4052;DHT22;2040;50.924;11.604;2023-02-15T15:53:00;12.40;99.90
4052;DHT22;2040;50.924;11.604;2023-02-15T15:55:29;12.30;99.90
4052;DHT22;2040;50.924;11.604;2023-02-15T15:57:59;12.30;99.90
4052;DHT22;2040;50.924;11.604;2023-02-15T16:00:35;12.30;99.90
4052;DHT22;2040;50.924;11.604;2023-02-15T16:03:01;12.20;99.90
4052;DHT22;2040;50.924;11.604;2023-02-15T16:05:34;12.00;99.90
4052;DHT22;2040;50.924;11.604;2023-02-15T16:08:00;11.80;99.90
4052;DHT22;2040;50.924;11.604;2023-02-15T16:10:28;11.60;99.90
4052;DHT22;2040;50.924;11.604;2023-02-15T16:12:55;11.40;99.90
4052;DHT22;2040;50.924;11.604;2023-02-15T16:15:32;11.20;99.90
4052;DHT22;2040;50.924;11.604;2023-02-15T16:17:59;11.00;99.90
4052;DHT22;2040;50.924;11.604;2023-02-15T16:20:26;10.60;99.90
4052;DHT22;2040;50.924;11.604;2023-02-15T16:23:21;10.20;99.90
4052;DHT22;2040;50.924;11.604;2023-02-15T16:26:22;9.70;99.90
4052;DHT22;2040;50.924;11.604;2023-02-15T16:28:52;9.30;99.90
4052;DHT22;2040;50.924;11.604;2023-02-15T16:31:19;9.10;99.90
4052;DHT22;2040;50.924;11.604;2023-02-15T16:33:46;9.10;99.90
4052;DHT22;2040;50.924;11.604;2023-02-15T16:36:23;9.20;99.90
4052;DHT22;2040;50.924;11.604;2023-02-15T16:41:18;8.90;99.90
4052;DHT22;2040;50.924;11.604;2023-02-15T16:43:49;8.70;99.90
4052;DHT22;2040;50.924;11.604;2023-02-15T16:46:20;8.50;99.90
4052;DHT22;2040;50.924;11.604;2023-02-15T16:48:49;8.30;99.90
4052;DHT22;2040;50.924;11.604;2023-02-15T16:51:29;8.10;99.90
4052;DHT22;2040;50.924;11.604;2023-02-15T16:53:56;8.00;99.90
4052;DHT22;2040;50.924;11.604;2023-02-15T16:56:24;8.00;99.90
4052;DHT22;2040;50.924;11.604;2023-02-15T16:58:52;8.00;99.90
4052;DHT22;2040;50.924;11.604;2023-02-15T17:01:21;7.90;99.90
4052;DHT22;2040;50.924;11.604;2023-02-15T17:03:49;7.80;99.90
4052;DHT22;2040;50.924;11.604;2023-02-15T17:06:24;7.90;99.90
4052;DHT22;2040;50.924;11.604;2023-02-15T17:09:16;7.80;99.90
4052;DHT22;2040;50.924;11.604;2023-02-15T17:11:43;7.70;99.90
4052;DHT22;2040;50.924;11.604;2023-02-15T17:19:28;7.50;99.90
4052;DHT22;2040;50.924;11.604;2023-02-15T17:21:56;7.40;99.90
4052;DHT22;2040;50.924;11.604;2023-02-15T17:24:39;7.30;99.90
4052;DHT22;2040;50.924;11.604;2023-02-15T17:27:15;7.30;99.90
4052;DHT22;2040;50.924;11.604;2023-02-15T17:29:50;7.10;99.90
4052;DHT22;2040;50.924;11.604;2023-02-15T17:32:27;7.20;99.90
4052;DHT22;2040;50.924;11.604;2023-02-15T17:39:51;6.60;99.90
4052;DHT22;2040;50.924;11.604;2023-02-15T17:42:17;6.50;99.90
4052;DHT22;2040;50.924;11.604;2023-02-15T17:44:42;6.30;99.90
4052;DHT22;2040;50.924;11.604;2023-02-15T17:47:13;6.20;99.90
4052;DHT22;2040;50.924;11.604;2023-02-15T17:49:40;6.10;99.90
4052;DHT22;2040;50.924;11.604;2023-02-15T17:52:08;6.10;99.90
4052;DHT22;2040;50.924;11.604;2023-02-15T17:54:35;6.00;99.90
4052;DHT22;2040;50.924;11.604;2023-02-15T17:57:19;5.90;99.90
4052;DHT22;2040;50.924;11.604;2023-02-15T17:59:45;5.80;99.90
4052;DHT22;2040;50.924;11.604;2023-02-15T18:02:33;5.80;99.90
4052;DHT22;2040;50.924;11.604;2023-02-15T18:05:18;5.80;99.90
4052;DHT22;2040;50.924;11.604;2023-02-15T18:08:03;5.70;99.90
4052;DHT22;2040;50.924;11.604;2023-02-15T18:10:47;5.70;99.90
4052;DHT22;2040;50.924;11.604;2023-02-15T18:13:31;5.60;99.90
4052;DHT22;2040;50.924;11.604;2023-02-15T18:15:57;5.50;99.90
4052;DHT22;2040;50.924;11.604;2023-02-15T18:18:23;5.40;99.90
4052;DHT22;2040;50.924;11.604;2023-02-15T18:20:48;5.20;99.90
4052;DHT22;2040;50.924;11.604;2023-02-15T18:23:15;5.10;99.90
4052;DHT22;2040;50.924;11.604;2023-02-15T18:25:40;5.00;99.90
4052;DHT22;2040;50.924;11.604;2023-02-15T18:28:08;4.90;99.90
4052;DHT22;2040;50.924;11.604;2023-02-15T18:30:35;4.90;99.90
4052;DHT22;2040;50.924;11.604;2023-02-15T18:33:01;4.70;99.90
4052;DHT22;2040;50.924;11.604;2023-02-15T18:35:31;4.70;99.90
4052;DHT22;2040;50.924;11.604;2023-02-15T18:37:58;4.60;99.90
4052;DHT22;2040;50.924;11.604;2023-02-15T18:40:26;4.70;99.90
4052;DHT22;2040;50.924;11.604;2023-02-15T18:42:52;4.50;99.90
4052;DHT22;2040;50.924;11.604;2023-02-15T18:45:23;4.40;99.90
4052;DHT22;2040;50.924;11.604;2023-02-15T18:47:50;4.40;99.90
4052;DHT22;2040;50.924;11.604;2023-02-15T18:50:18;4.30;99.90
4052;DHT22;2040;50.924;11.604;2023-02-15T18:52:45;4.30;99.90
4052;DHT22;2040;50.924;11.604;2023-02-15T18:55:25;4.20;99.90
4052;DHT22;2040;50.924;11.604;2023-02-15T18:57:54;4.30;99.90
4052;DHT22;2040;50.924;11.604;2023-02-15T19:00:29;4.30;99.90
4052;DHT22;2040;50.924;11.604;2023-02-15T19:02:57;4.40;99.90
4052;DHT22;2040;50.924;11.604;2023-02-15T19:05:24;4.40;99.90
4052;DHT22;2040;50.924;11.604;2023-02-15T19:07:52;4.40;99.90
4052;DHT22;2040;50.924;11.604;2023-02-15T19:10:23;4.30;99.90
4052;DHT22;2040;50.924;11.604;2023-02-15T19:12:50;4.20;99.90